sensor_id;sensor_type;location;lat;lon;timestamp;P1;durP1;ratioP1;P2;durP2;ratioP2
29202;SDS011;16245;51.170;4.884;2022-11-20T00:00:42;19.02;;;14.48;;
29202;SDS011;16245;51.170;4.884;2022-11-20T00:03:08;20.92;;;14.25;;
29202;SDS011;16245;51.170;4.884;2022-11-20T00:05:34;18.65;;;13.90;;
29202;SDS011;16245;51.170;4.884;2022-11-20T00:07:59;18.75;;;13.57;;
29202;SDS011;16245;51.170;4.884;2022-11-20T00:10:25;18.30;;;13.65;;
29202;SDS011;16245;51.170;4.884;2022-11-20T00:12:51;16.77;;;13.57;;
29202;SDS011;16245;51.170;4.884;2022-11-20T00:15:17;18.45;;;13.15;;
29202;SDS011;16245;51.170;4.884;2022-11-20T00:17:42;17.40;;;13.23;;
29202;SDS011;16245;51.170;4.884;2022-11-20T00:20:08;18.15;;;14.25;;
29202;SDS011;16245;51.170;4.884;2022-11-20T00:22:34;17.88;;;13.80;;
29202;SDS011;16245;51.170;4.884;2022-11-20T00:25:00;18.98;;;13.75;;
29202;SDS011;16245;51.170;4.884;2022-11-20T00:27:26;17.40;;;13.07;;
29202;SDS011;16245;51.170;4.884;2022-11-20T00:29:51;17.88;;;14.18;;
29202;SDS011;16245;51.170;4.884;2022-11-20T00:32:17;19.45;;;13.30;;
29202;SDS011;16245;51.170;4.884;2022-11-20T00:34:42;18.15;;;13.18;;
29202;SDS011;16245;51.170;4.884;2022-11-20T00:37:08;20.15;;;13.70;;
29202;SDS011;16245;51.170;4.884;2022-11-20T00:39:34;17.08;;;12.63;;
29202;SDS011;16245;51.170;4.884;2022-11-20T00:41:59;17.15;;;13.02;;
29202;SDS011;16245;51.170;4.884;2022-11-20T00:44:25;19.75;;;13.50;;
29202;SDS011;16245;51.170;4.884;2022-11-20T00:46:51;17.25;;;13.38;;
29202;SDS011;16245;51.170;4.884;2022-11-20T00:49:16;18.67;;;12.95;;
29202;SDS011;16245;51.170;4.884;2022-11-20T00:51:42;17.08;;;13.38;;
29202;SDS011;16245;51.170;4.884;2022-11-20T00:54:07;21.52;;;13.90;;
29202;SDS011;16245;51.170;4.884;2022-11-20T00:56:33;18.70;;;13.90;;
29202;SDS011;16245;51.170;4.884;2022-11-20T00:58:59;21.77;;;14.48;;
29202;SDS011;16245;51.170;4.884;2022-11-20T01:01:26;17.67;;;13.25;;
29202;SDS011;16245;51.170;4.884;2022-11-20T01:03:55;18.10;;;13.25;;
29202;SDS011;16245;51.170;4.884;2022-11-20T01:06:29;16.33;;;12.63;;
29202;SDS011;16245;51.170;4.884;2022-11-20T01:08:57;16.92;;;12.57;;
29202;SDS011;16245;51.170;4.884;2022-11-20T01:11:25;19.05;;;13.27;;
29202;SDS011;16245;51.170;4.884;2022-11-20T01:13:55;18.95;;;13.73;;
29202;SDS011;16245;51.170;4.884;2022-11-20T01:16:26;17.08;;;13.07;;
29202;SDS011;16245;51.170;4.884;2022-11-20T01:19:00;17.20;;;13.48;;
29202;SDS011;16245;51.170;4.884;2022-11-20T01:21:31;15.90;;;13.13;;
29202;SDS011;16245;51.170;4.884;2022-11-20T01:23:58;16.63;;;12.38;;
29202;SDS011;16245;51.170;4.884;2022-11-20T01:26:25;17.10;;;12.40;;
29202;SDS011;16245;51.170;4.884;2022-11-20T01:28:53;15.45;;;11.75;;
29202;SDS011;16245;51.170;4.884;2022-11-20T01:31:27;16.48;;;12.90;;
29202;SDS011;16245;51.170;4.884;2022-11-20T01:33:57;18.13;;;12.35;;
29202;SDS011;16245;51.170;4.884;2022-11-20T01:36:26;17.88;;;12.43;;
29202;SDS011;16245;51.170;4.884;2022-11-20T01:38:54;15.05;;;11.52;;
29202;SDS011;16245;51.170;4.884;2022-11-20T01:41:22;16.40;;;12.48;;
29202;SDS011;16245;51.170;4.884;2022-11-20T01:44:09;16.98;;;12.93;;
29202;SDS011;16245;51.170;4.884;2022-11-20T01:46:40;20.60;;;13.13;;
29202;SDS011;16245;51.170;4.884;2022-11-20T01:51:45;16.95;;;12.55;;
29202;SDS011;16245;51.170;4.884;2022-11-20T01:54:17;14.73;;;11.70;;
29202;SDS011;16245;51.170;4.884;2022-11-20T01:56:49;15.50;;;12.60;;
29202;SDS011;16245;51.170;4.884;2022-11-20T01:59:19;16.23;;;11.45;;
29202;SDS011;16245;51.170;4.884;2022-11-20T02:01:46;16.90;;;12.20;;
29202;SDS011;16245;51.170;4.884;2022-11-20T02:04:12;15.55;;;11.55;;
29202;SDS011;16245;51.170;4.884;2022-11-20T02:06:40;15.82;;;12.70;;
29202;SDS011;16245;51.170;4.884;2022-11-20T02:09:12;20.13;;;13.38;;
29202;SDS011;16245;51.170;4.884;2022-11-20T02:11:38;17.77;;;12.95;;
29202;SDS011;16245;51.170;4.884;2022-11-20T02:14:04;17.33;;;12.48;;
29202;SDS011;16245;51.170;4.884;2022-11-20T02:16:31;16.42;;;12.30;;
29202;SDS011;16245;51.170;4.884;2022-11-20T02:19:04;15.57;;;12.38;;
29202;SDS011;16245;51.170;4.884;2022-11-20T02:21:41;17.38;;;12.43;;
29202;SDS011;16245;51.170;4.884;2022-11-20T02:24:16;15.68;;;11.63;;
29202;SDS011;16245;51.170;4.884;2022-11-20T02:26:46;15.48;;;12.05;;
29202;SDS011;16245;51.170;4.884;2022-11-20T02:29:23;17.33;;;12.43;;
29202;SDS011;16245;51.170;4.884;2022-11-20T02:31:51;14.82;;;11.88;;
29202;SDS011;16245;51.170;4.884;2022-11-20T02:34:19;14.65;;;11.45;;
29202;SDS011;16245;51.170;4.884;2022-11-20T02:36:45;15.45;;;12.48;;
29202;SDS011;16245;51.170;4.884;2022-11-20T02:39:11;18.05;;;13.40;;
29202;SDS011;16245;51.170;4.884;2022-11-20T02:41:41;19.73;;;12.13;;
29202;SDS011;16245;51.170;4.884;2022-11-20T02:44:07;16.80;;;12.98;;
29202;SDS011;16245;51.170;4.884;2022-11-20T02:46:33;15.95;;;13.02;;
29202;SDS011;16245;51.170;4.884;2022-11-20T02:49:00;14.77;;;12.20;;
29202;SDS011;16245;51.170;4.884;2022-11-20T02:51:26;15.88;;;12.05;;
29202;SDS011;16245;51.170;4.884;2022-11-20T02:53:52;17.38;;;12.85;;
29202;SDS011;16245;51.170;4.884;2022-11-20T02:56:18;16.48;;;11.93;;
29202;SDS011;16245;51.170;4.884;2022-11-20T02:58:43;16.13;;;11.88;;
29202;SDS011;16245;51.170;4.884;2022-11-20T03:01:09;42.15;;;26.67;;
29202;SDS011;16245;51.170;4.884;2022-11-20T03:03:35;29.83;;;20.23;;
29202;SDS011;16245;51.170;4.884;2022-11-20T03:06:00;19.15;;;14.23;;
29202;SDS011;16245;51.170;4.884;2022-11-20T03:08:26;17.85;;;13.75;;
29202;SDS011;16245;51.170;4.884;2022-11-20T03:10:52;21.40;;;16.75;;
29202;SDS011;16245;51.170;4.884;2022-11-20T03:13:18;16.27;;;12.30;;
29202;SDS011;16245;51.170;4.884;2022-11-20T03:15:43;16.75;;;12.57;;
29202;SDS011;16245;51.170;4.884;2022-11-20T03:18:09;19.42;;;12.38;;
29202;SDS011;16245;51.170;4.884;2022-11-20T03:20:35;16.95;;;12.65;;
29202;SDS011;16245;51.170;4.884;2022-11-20T03:23:00;18.05;;;12.68;;
29202;SDS011;16245;51.170;4.884;2022-11-20T03:25:26;15.32;;;11.45;;
29202;SDS011;16245;51.170;4.884;2022-11-20T03:27:52;14.63;;;11.73;;
29202;SDS011;16245;51.170;4.884;2022-11-20T03:30:19;18.27;;;12.05;;
29202;SDS011;16245;51.170;4.884;2022-11-20T03:32:44;15.90;;;11.77;;
29202;SDS011;16245;51.170;4.884;2022-11-20T03:35:10;13.98;;;11.32;;
29202;SDS011;16245;51.170;4.884;2022-11-20T03:37:36;14.70;;;11.48;;
29202;SDS011;16245;51.170;4.884;2022-11-20T03:40:01;16.88;;;11.35;;
29202;SDS011;16245;51.170;4.884;2022-11-20T03:42:27;14.95;;;10.85;;
29202;SDS011;16245;51.170;4.884;2022-11-20T03:45:11;16.67;;;11.90;;
29202;SDS011;16245;51.170;4.884;2022-11-20T03:47:39;14.93;;;11.85;;
29202;SDS011;16245;51.170;4.884;2022-11-20T03:50:05;14.75;;;11.43;;
29202;SDS011;16245;51.170;4.884;2022-11-20T03:52:31;17.35;;;11.88;;
29202;SDS011;16245;51.170;4.884;2022-11-20T03:54:56;15.25;;;11.25;;
29202;SDS011;16245;51.170;4.884;2022-11-20T03:57:22;15.52;;;11.57;;
29202;SDS011;16245;51.170;4.884;2022-11-20T03:59:47;18.92;;;12.48;;
29202;SDS011;16245;51.170;4.884;2022-11-20T04:02:13;15.93;;;11.88;;
29202;SDS011;16245;51.170;4.884;2022-11-20T04:04:39;15.77;;;11.73;;
29202;SDS011;16245;51.170;4.884;2022-11-20T04:07:04;14.65;;;11.13;;
29202;SDS011;16245;51.170;4.884;2022-11-20T04:09:30;16.80;;;13.13;;
29202;SDS011;16245;51.170;4.884;2022-11-20T04:11:55;16.13;;;12.15;;
29202;SDS011;16245;51.170;4.884;2022-11-20T04:14:21;15.93;;;11.98;;
29202;SDS011;16245;51.170;4.884;2022-11-20T04:16:47;17.13;;;12.02;;
29202;SDS011;16245;51.170;4.884;2022-11-20T04:19:14;13.88;;;11.75;;
29202;SDS011;16245;51.170;4.884;2022-11-20T04:21:41;16.35;;;11.98;;
29202;SDS011;16245;51.170;4.884;2022-11-20T04:24:07;16.88;;;13.00;;
29202;SDS011;16245;51.170;4.884;2022-11-20T04:26:33;15.40;;;11.90;;
29202;SDS011;16245;51.170;4.884;2022-11-20T04:28:59;19.80;;;13.02;;
29202;SDS011;16245;51.170;4.884;2022-11-20T04:31:27;17.13;;;12.65;;
29202;SDS011;16245;51.170;4.884;2022-11-20T04:33:54;16.63;;;12.40;;
29202;SDS011;16245;51.170;4.884;2022-11-20T04:36:25;17.98;;;13.27;;
29202;SDS011;16245;51.170;4.884;2022-11-20T04:38:51;16.73;;;12.05;;
29202;SDS011;16245;51.170;4.884;2022-11-20T04:41:18;17.83;;;12.52;;
29202;SDS011;16245;51.170;4.884;2022-11-20T04:43:46;15.75;;;12.43;;
29202;SDS011;16245;51.170;4.884;2022-11-20T04:46:16;17.17;;;12.98;;
29202;SDS011;16245;51.170;4.884;2022-11-20T04:48:43;17.90;;;12.40;;
29202;SDS011;16245;51.170;4.884;2022-11-20T04:51:09;17.75;;;12.32;;
29202;SDS011;16245;51.170;4.884;2022-11-20T04:53:35;16.67;;;12.57;;
29202;SDS011;16245;51.170;4.884;2022-11-20T04:56:03;17.33;;;12.82;;
29202;SDS011;16245;51.170;4.884;2022-11-20T04:58:30;15.93;;;12.05;;
29202;SDS011;16245;51.170;4.884;2022-11-20T05:01:06;17.10;;;13.02;;
29202;SDS011;16245;51.170;4.884;2022-11-20T05:03:40;18.60;;;13.27;;
29202;SDS011;16245;51.170;4.884;2022-11-20T05:06:07;16.02;;;11.63;;
29202;SDS011;16245;51.170;4.884;2022-11-20T05:08:33;16.55;;;12.95;;
29202;SDS011;16245;51.170;4.884;2022-11-20T05:11:00;17.92;;;12.45;;
29202;SDS011;16245;51.170;4.884;2022-11-20T05:13:30;17.30;;;12.73;;
29202;SDS011;16245;51.170;4.884;2022-11-20T05:16:00;16.27;;;12.65;;
29202;SDS011;16245;51.170;4.884;2022-11-20T05:18:27;17.13;;;12.88;;
29202;SDS011;16245;51.170;4.884;2022-11-20T05:20:56;17.88;;;12.77;;
29202;SDS011;16245;51.170;4.884;2022-11-20T05:23:23;15.80;;;11.68;;
29202;SDS011;16245;51.170;4.884;2022-11-20T05:25:51;19.00;;;13.30;;
29202;SDS011;16245;51.170;4.884;2022-11-20T05:28:21;18.42;;;13.52;;
29202;SDS011;16245;51.170;4.884;2022-11-20T05:30:48;19.45;;;13.63;;
29202;SDS011;16245;51.170;4.884;2022-11-20T05:33:14;18.98;;;14.63;;
29202;SDS011;16245;51.170;4.884;2022-11-20T05:35:40;19.42;;;13.77;;
29202;SDS011;16245;51.170;4.884;2022-11-20T05:38:05;21.80;;;15.77;;
29202;SDS011;16245;51.170;4.884;2022-11-20T05:40:31;24.30;;;16.35;;
29202;SDS011;16245;51.170;4.884;2022-11-20T05:42:57;30.33;;;19.27;;
29202;SDS011;16245;51.170;4.884;2022-11-20T05:45:22;34.10;;;20.25;;
29202;SDS011;16245;51.170;4.884;2022-11-20T05:47:48;35.13;;;20.92;;
29202;SDS011;16245;51.170;4.884;2022-11-20T05:50:14;30.88;;;20.48;;
29202;SDS011;16245;51.170;4.884;2022-11-20T05:52:40;29.90;;;20.17;;
29202;SDS011;16245;51.170;4.884;2022-11-20T05:55:06;31.05;;;20.98;;
29202;SDS011;16245;51.170;4.884;2022-11-20T05:57:32;32.42;;;20.60;;
29202;SDS011;16245;51.170;4.884;2022-11-20T05:59:57;34.65;;;22.33;;
29202;SDS011;16245;51.170;4.884;2022-11-20T06:02:23;38.40;;;23.92;;
29202;SDS011;16245;51.170;4.884;2022-11-20T06:04:48;36.75;;;23.73;;
29202;SDS011;16245;51.170;4.884;2022-11-20T06:07:14;39.55;;;24.45;;
29202;SDS011;16245;51.170;4.884;2022-11-20T06:09:40;40.38;;;24.67;;
29202;SDS011;16245;51.170;4.884;2022-11-20T06:12:05;41.47;;;25.50;;
29202;SDS011;16245;51.170;4.884;2022-11-20T06:14:31;40.50;;;26.00;;
29202;SDS011;16245;51.170;4.884;2022-11-20T06:16:57;40.75;;;24.17;;
29202;SDS011;16245;51.170;4.884;2022-11-20T06:19:23;38.42;;;24.77;;
29202;SDS011;16245;51.170;4.884;2022-11-20T06:21:49;36.42;;;24.30;;
29202;SDS011;16245;51.170;4.884;2022-11-20T06:24:15;40.83;;;24.77;;
29202;SDS011;16245;51.170;4.884;2022-11-20T06:26:41;38.22;;;24.50;;
29202;SDS011;16245;51.170;4.884;2022-11-20T06:29:07;40.78;;;24.92;;
29202;SDS011;16245;51.170;4.884;2022-11-20T06:31:33;39.40;;;24.85;;
29202;SDS011;16245;51.170;4.884;2022-11-20T06:34:00;38.78;;;25.13;;
29202;SDS011;16245;51.170;4.884;2022-11-20T06:36:26;36.08;;;23.33;;
29202;SDS011;16245;51.170;4.884;2022-11-20T06:38:51;34.47;;;22.40;;
29202;SDS011;16245;51.170;4.884;2022-11-20T06:41:20;34.42;;;22.42;;
29202;SDS011;16245;51.170;4.884;2022-11-20T06:43:46;36.13;;;23.45;;
29202;SDS011;16245;51.170;4.884;2022-11-20T06:46:13;36.20;;;23.75;;
29202;SDS011;16245;51.170;4.884;2022-11-20T06:48:42;42.25;;;24.98;;
29202;SDS011;16245;51.170;4.884;2022-11-20T06:51:08;39.60;;;25.33;;
29202;SDS011;16245;51.170;4.884;2022-11-20T06:53:34;39.28;;;23.83;;
29202;SDS011;16245;51.170;4.884;2022-11-20T06:56:01;41.17;;;23.42;;
29202;SDS011;16245;51.170;4.884;2022-11-20T06:58:27;38.13;;;25.15;;
29202;SDS011;16245;51.170;4.884;2022-11-20T07:01:01;40.42;;;25.33;;
29202;SDS011;16245;51.170;4.884;2022-11-20T07:03:28;43.25;;;26.50;;
29202;SDS011;16245;51.170;4.884;2022-11-20T07:05:55;37.42;;;23.77;;
29202;SDS011;16245;51.170;4.884;2022-11-20T07:08:21;40.88;;;25.33;;
29202;SDS011;16245;51.170;4.884;2022-11-20T07:10:47;41.78;;;25.73;;
29202;SDS011;16245;51.170;4.884;2022-11-20T07:13:12;41.33;;;23.75;;
29202;SDS011;16245;51.170;4.884;2022-11-20T07:15:38;41.88;;;25.98;;
29202;SDS011;16245;51.170;4.884;2022-11-20T07:18:04;38.90;;;24.58;;
29202;SDS011;16245;51.170;4.884;2022-11-20T07:20:30;41.42;;;26.65;;
29202;SDS011;16245;51.170;4.884;2022-11-20T07:22:55;37.58;;;23.85;;
29202;SDS011;16245;51.170;4.884;2022-11-20T07:25:22;39.33;;;24.92;;
29202;SDS011;16245;51.170;4.884;2022-11-20T07:27:48;40.33;;;24.85;;
29202;SDS011;16245;51.170;4.884;2022-11-20T07:30:15;38.35;;;24.52;;
29202;SDS011;16245;51.170;4.884;2022-11-20T07:32:41;38.70;;;24.33;;
29202;SDS011;16245;51.170;4.884;2022-11-20T07:35:06;36.95;;;23.63;;
29202;SDS011;16245;51.170;4.884;2022-11-20T07:37:35;37.97;;;26.45;;
29202;SDS011;16245;51.170;4.884;2022-11-20T07:40:01;37.40;;;24.00;;
29202;SDS011;16245;51.170;4.884;2022-11-20T07:42:28;40.03;;;24.50;;
29202;SDS011;16245;51.170;4.884;2022-11-20T07:44:53;42.90;;;25.63;;
29202;SDS011;16245;51.170;4.884;2022-11-20T07:47:19;42.97;;;26.05;;
29202;SDS011;16245;51.170;4.884;2022-11-20T07:49:45;38.42;;;25.42;;
29202;SDS011;16245;51.170;4.884;2022-11-20T07:52:10;42.15;;;25.63;;
29202;SDS011;16245;51.170;4.884;2022-11-20T07:54:36;43.28;;;25.85;;
29202;SDS011;16245;51.170;4.884;2022-11-20T07:57:01;41.83;;;24.40;;
29202;SDS011;16245;51.170;4.884;2022-11-20T07:59:27;41.63;;;25.58;;
29202;SDS011;16245;51.170;4.884;2022-11-20T08:01:53;38.67;;;25.77;;
29202;SDS011;16245;51.170;4.884;2022-11-20T08:04:18;41.55;;;25.00;;
29202;SDS011;16245;51.170;4.884;2022-11-20T08:06:44;41.90;;;24.27;;
29202;SDS011;16245;51.170;4.884;2022-11-20T08:09:09;42.85;;;25.02;;
29202;SDS011;16245;51.170;4.884;2022-11-20T08:11:35;43.13;;;25.70;;
29202;SDS011;16245;51.170;4.884;2022-11-20T08:14:19;49.92;;;26.27;;
29202;SDS011;16245;51.170;4.884;2022-11-20T08:16:45;42.75;;;26.77;;
29202;SDS011;16245;51.170;4.884;2022-11-20T08:19:12;42.05;;;25.60;;
29202;SDS011;16245;51.170;4.884;2022-11-20T08:21:39;43.38;;;26.38;;
29202;SDS011;16245;51.170;4.884;2022-11-20T08:24:05;45.03;;;25.35;;
29202;SDS011;16245;51.170;4.884;2022-11-20T08:26:32;40.00;;;26.35;;
29202;SDS011;16245;51.170;4.884;2022-11-20T08:28:57;45.35;;;27.40;;
29202;SDS011;16245;51.170;4.884;2022-11-20T08:31:24;41.00;;;25.27;;
29202;SDS011;16245;51.170;4.884;2022-11-20T08:33:51;42.45;;;26.05;;
29202;SDS011;16245;51.170;4.884;2022-11-20T08:36:17;42.03;;;24.88;;
29202;SDS011;16245;51.170;4.884;2022-11-20T08:38:48;49.47;;;26.90;;
29202;SDS011;16245;51.170;4.884;2022-11-20T08:41:15;44.90;;;26.40;;
29202;SDS011;16245;51.170;4.884;2022-11-20T08:43:56;41.95;;;25.10;;
29202;SDS011;16245;51.170;4.884;2022-11-20T08:46:24;50.47;;;29.40;;
29202;SDS011;16245;51.170;4.884;2022-11-20T08:48:51;50.35;;;29.08;;
29202;SDS011;16245;51.170;4.884;2022-11-20T08:51:17;44.72;;;26.10;;
29202;SDS011;16245;51.170;4.884;2022-11-20T08:53:43;45.88;;;25.95;;
29202;SDS011;16245;51.170;4.884;2022-11-20T08:56:09;48.72;;;27.40;;
29202;SDS011;16245;51.170;4.884;2022-11-20T08:58:35;44.47;;;27.35;;
29202;SDS011;16245;51.170;4.884;2022-11-20T09:01:01;44.92;;;26.67;;
29202;SDS011;16245;51.170;4.884;2022-11-20T09:03:27;49.00;;;27.83;;
29202;SDS011;16245;51.170;4.884;2022-11-20T09:05:57;49.58;;;28.73;;
29202;SDS011;16245;51.170;4.884;2022-11-20T09:08:24;42.05;;;26.27;;
29202;SDS011;16245;51.170;4.884;2022-11-20T09:10:53;46.67;;;26.85;;
29202;SDS011;16245;51.170;4.884;2022-11-20T09:13:20;49.00;;;28.35;;
29202;SDS011;16245;51.170;4.884;2022-11-20T09:15:46;46.83;;;27.70;;
29202;SDS011;16245;51.170;4.884;2022-11-20T09:18:12;47.13;;;26.23;;
29202;SDS011;16245;51.170;4.884;2022-11-20T09:20:38;47.40;;;26.52;;
29202;SDS011;16245;51.170;4.884;2022-11-20T09:23:03;48.20;;;27.60;;
29202;SDS011;16245;51.170;4.884;2022-11-20T09:25:29;50.88;;;28.67;;
29202;SDS011;16245;51.170;4.884;2022-11-20T09:27:55;49.55;;;28.40;;
29202;SDS011;16245;51.170;4.884;2022-11-20T09:30:22;50.55;;;27.10;;
29202;SDS011;16245;51.170;4.884;2022-11-20T09:32:47;52.13;;;28.23;;
29202;SDS011;16245;51.170;4.884;2022-11-20T09:35:13;49.30;;;27.17;;
29202;SDS011;16245;51.170;4.884;2022-11-20T09:37:39;52.47;;;27.35;;
29202;SDS011;16245;51.170;4.884;2022-11-20T09:40:05;49.55;;;27.77;;
29202;SDS011;16245;51.170;4.884;2022-11-20T09:45:50;50.05;;;27.60;;
29202;SDS011;16245;51.170;4.884;2022-11-20T09:56:16;46.45;;;27.00;;
29202;SDS011;16245;51.170;4.884;2022-11-20T09:58:50;47.80;;;26.77;;
29202;SDS011;16245;51.170;4.884;2022-11-20T10:01:20;51.28;;;27.75;;
29202;SDS011;16245;51.170;4.884;2022-11-20T10:06:51;47.13;;;28.83;;
29202;SDS011;16245;51.170;4.884;2022-11-20T10:09:28;44.95;;;27.98;;
29202;SDS011;16245;51.170;4.884;2022-11-20T10:12:14;52.90;;;28.83;;
29202;SDS011;16245;51.170;4.884;2022-11-20T10:18:13;54.15;;;27.83;;
29202;SDS011;16245;51.170;4.884;2022-11-20T10:20:51;56.65;;;29.27;;
29202;SDS011;16245;51.170;4.884;2022-11-20T10:31:14;58.85;;;28.75;;
29202;SDS011;16245;51.170;4.884;2022-11-20T10:33:51;60.38;;;29.08;;
29202;SDS011;16245;51.170;4.884;2022-11-20T10:38:58;54.58;;;28.10;;
29202;SDS011;16245;51.170;4.884;2022-11-20T10:41:30;63.72;;;30.17;;
29202;SDS011;16245;51.170;4.884;2022-11-20T10:46:25;61.17;;;28.83;;
29202;SDS011;16245;51.170;4.884;2022-11-20T10:48:54;59.63;;;27.63;;
29202;SDS011;16245;51.170;4.884;2022-11-20T10:56:53;55.83;;;27.25;;
29202;SDS011;16245;51.170;4.884;2022-11-20T11:02:00;58.42;;;29.20;;
29202;SDS011;16245;51.170;4.884;2022-11-20T11:07:04;59.35;;;30.88;;
29202;SDS011;16245;51.170;4.884;2022-11-20T11:09:37;57.42;;;28.52;;
29202;SDS011;16245;51.170;4.884;2022-11-20T11:12:07;47.97;;;26.50;;
29202;SDS011;16245;51.170;4.884;2022-11-20T11:15:11;62.33;;;29.08;;
29202;SDS011;16245;51.170;4.884;2022-11-20T11:17:28;61.58;;;28.75;;
29202;SDS011;16245;51.170;4.884;2022-11-20T11:19:56;54.28;;;27.67;;
29202;SDS011;16245;51.170;4.884;2022-11-20T11:22:26;60.10;;;29.95;;
29202;SDS011;16245;51.170;4.884;2022-11-20T11:24:54;54.20;;;27.42;;
29202;SDS011;16245;51.170;4.884;2022-11-20T11:27:20;55.15;;;28.17;;
29202;SDS011;16245;51.170;4.884;2022-11-20T11:29:46;50.70;;;27.10;;
29202;SDS011;16245;51.170;4.884;2022-11-20T11:32:13;64.93;;;30.52;;
29202;SDS011;16245;51.170;4.884;2022-11-20T11:34:42;61.58;;;29.95;;
29202;SDS011;16245;51.170;4.884;2022-11-20T11:37:18;54.75;;;27.83;;
29202;SDS011;16245;51.170;4.884;2022-11-20T11:39:49;53.95;;;27.65;;
29202;SDS011;16245;51.170;4.884;2022-11-20T11:42:16;62.00;;;30.60;;
29202;SDS011;16245;51.170;4.884;2022-11-20T11:44:44;59.67;;;29.85;;
29202;SDS011;16245;51.170;4.884;2022-11-20T11:47:36;55.30;;;27.83;;
29202;SDS011;16245;51.170;4.884;2022-11-20T11:52:45;57.63;;;27.60;;
29202;SDS011;16245;51.170;4.884;2022-11-20T12:00:49;54.25;;;27.08;;
29202;SDS011;16245;51.170;4.884;2022-11-20T12:03:27;60.20;;;31.73;;
29202;SDS011;16245;51.170;4.884;2022-11-20T12:06:05;54.13;;;28.67;;
29202;SDS011;16245;51.170;4.884;2022-11-20T12:11:29;50.72;;;26.00;;
29202;SDS011;16245;51.170;4.884;2022-11-20T12:16:44;50.90;;;29.27;;
29202;SDS011;16245;51.170;4.884;2022-11-20T12:19:12;53.05;;;28.67;;
29202;SDS011;16245;51.170;4.884;2022-11-20T12:48:53;42.78;;;23.15;;
29202;SDS011;16245;51.170;4.884;2022-11-20T12:57:09;41.08;;;22.90;;
29202;SDS011;16245;51.170;4.884;2022-11-20T13:08:11;38.75;;;22.90;;
29202;SDS011;16245;51.170;4.884;2022-11-20T13:16:41;30.15;;;17.10;;
29202;SDS011;16245;51.170;4.884;2022-11-20T13:19:14;32.65;;;16.88;;
29202;SDS011;16245;51.170;4.884;2022-11-20T13:21:42;32.55;;;15.48;;
29202;SDS011;16245;51.170;4.884;2022-11-20T13:29:32;18.88;;;9.32;;
29202;SDS011;16245;51.170;4.884;2022-11-20T13:32:21;13.13;;;6.90;;
29202;SDS011;16245;51.170;4.884;2022-11-20T13:34:53;16.52;;;7.07;;
29202;SDS011;16245;51.170;4.884;2022-11-20T13:37:25;14.50;;;5.82;;
29202;SDS011;16245;51.170;4.884;2022-11-20T13:39:52;12.52;;;4.78;;
29202;SDS011;16245;51.170;4.884;2022-11-20T13:42:23;12.93;;;5.28;;
29202;SDS011;16245;51.170;4.884;2022-11-20T13:44:54;9.25;;;5.10;;
29202;SDS011;16245;51.170;4.884;2022-11-20T13:47:23;7.60;;;4.93;;
29202;SDS011;16245;51.170;4.884;2022-11-20T13:49:51;10.75;;;4.20;;
29202;SDS011;16245;51.170;4.884;2022-11-20T13:55:31;8.57;;;3.65;;
29202;SDS011;16245;51.170;4.884;2022-11-20T14:01:35;7.97;;;3.03;;
29202;SDS011;16245;51.170;4.884;2022-11-20T14:04:08;4.72;;;3.00;;
29202;SDS011;16245;51.170;4.884;2022-11-20T14:06:43;5.10;;;2.95;;
29202;SDS011;16245;51.170;4.884;2022-11-20T14:09:13;7.80;;;4.13;;
29202;SDS011;16245;51.170;4.884;2022-11-20T14:11:50;9.02;;;3.63;;
29202;SDS011;16245;51.170;4.884;2022-11-20T14:14:17;9.07;;;4.32;;
29202;SDS011;16245;51.170;4.884;2022-11-20T14:16:48;10.65;;;3.38;;
29202;SDS011;16245;51.170;4.884;2022-11-20T14:21:48;10.02;;;3.63;;
29202;SDS011;16245;51.170;4.884;2022-11-20T14:24:19;7.95;;;5.25;;
29202;SDS011;16245;51.170;4.884;2022-11-20T14:26:46;9.25;;;4.93;;
29202;SDS011;16245;51.170;4.884;2022-11-20T14:29:16;8.52;;;4.13;;
29202;SDS011;16245;51.170;4.884;2022-11-20T14:31:53;6.18;;;3.92;;
29202;SDS011;16245;51.170;4.884;2022-11-20T14:34:21;9.68;;;4.70;;
29202;SDS011;16245;51.170;4.884;2022-11-20T14:36:53;9.00;;;4.20;;
29202;SDS011;16245;51.170;4.884;2022-11-20T14:39:34;7.80;;;4.65;;
29202;SDS011;16245;51.170;4.884;2022-11-20T14:42:01;10.82;;;5.13;;
29202;SDS011;16245;51.170;4.884;2022-11-20T14:44:38;9.35;;;4.15;;
29202;SDS011;16245;51.170;4.884;2022-11-20T14:47:05;11.35;;;4.15;;
29202;SDS011;16245;51.170;4.884;2022-11-20T14:49:31;6.30;;;3.17;;
29202;SDS011;16245;51.170;4.884;2022-11-20T14:52:11;9.23;;;4.45;;
29202;SDS011;16245;51.170;4.884;2022-11-20T14:54:46;7.10;;;4.30;;
29202;SDS011;16245;51.170;4.884;2022-11-20T14:57:21;8.02;;;4.20;;
29202;SDS011;16245;51.170;4.884;2022-11-20T14:59:49;9.43;;;3.88;;
29202;SDS011;16245;51.170;4.884;2022-11-20T15:02:14;7.00;;;3.78;;
29202;SDS011;16245;51.170;4.884;2022-11-20T15:04:44;8.20;;;3.90;;
29202;SDS011;16245;51.170;4.884;2022-11-20T15:07:11;7.88;;;3.88;;
29202;SDS011;16245;51.170;4.884;2022-11-20T15:09:36;10.40;;;4.25;;
29202;SDS011;16245;51.170;4.884;2022-11-20T15:12:03;8.25;;;3.50;;
29202;SDS011;16245;51.170;4.884;2022-11-20T15:14:29;6.78;;;3.97;;
29202;SDS011;16245;51.170;4.884;2022-11-20T15:16:57;6.80;;;4.40;;
29202;SDS011;16245;51.170;4.884;2022-11-20T15:19:25;8.40;;;3.70;;
29202;SDS011;16245;51.170;4.884;2022-11-20T15:21:51;8.40;;;3.70;;
29202;SDS011;16245;51.170;4.884;2022-11-20T15:24:17;7.15;;;3.90;;
29202;SDS011;16245;51.170;4.884;2022-11-20T15:26:43;6.60;;;3.97;;
29202;SDS011;16245;51.170;4.884;2022-11-20T15:29:13;5.43;;;3.88;;
29202;SDS011;16245;51.170;4.884;2022-11-20T15:31:43;7.47;;;4.75;;
29202;SDS011;16245;51.170;4.884;2022-11-20T15:34:15;4.60;;;3.97;;
29202;SDS011;16245;51.170;4.884;2022-11-20T15:36:42;5.85;;;4.25;;
29202;SDS011;16245;51.170;4.884;2022-11-20T15:39:08;5.85;;;4.70;;
29202;SDS011;16245;51.170;4.884;2022-11-20T15:41:34;7.60;;;5.38;;
29202;SDS011;16245;51.170;4.884;2022-11-20T15:44:01;6.20;;;4.60;;
29202;SDS011;16245;51.170;4.884;2022-11-20T15:46:27;8.10;;;5.55;;
29202;SDS011;16245;51.170;4.884;2022-11-20T15:48:55;8.32;;;6.40;;
29202;SDS011;16245;51.170;4.884;2022-11-20T15:51:35;6.88;;;5.07;;
29202;SDS011;16245;51.170;4.884;2022-11-20T15:54:17;6.80;;;5.03;;
29202;SDS011;16245;51.170;4.884;2022-11-20T15:56:47;6.25;;;5.25;;
29202;SDS011;16245;51.170;4.884;2022-11-20T15:59:19;6.00;;;4.90;;
29202;SDS011;16245;51.170;4.884;2022-11-20T16:01:44;8.30;;;5.50;;
29202;SDS011;16245;51.170;4.884;2022-11-20T16:04:14;7.90;;;5.60;;
29202;SDS011;16245;51.170;4.884;2022-11-20T16:06:41;10.30;;;6.28;;
29202;SDS011;16245;51.170;4.884;2022-11-20T16:09:07;6.47;;;5.63;;
29202;SDS011;16245;51.170;4.884;2022-11-20T16:11:33;6.40;;;5.38;;
29202;SDS011;16245;51.170;4.884;2022-11-20T16:14:01;7.38;;;5.88;;
29202;SDS011;16245;51.170;4.884;2022-11-20T16:16:46;8.93;;;5.45;;
29202;SDS011;16245;51.170;4.884;2022-11-20T16:19:12;6.97;;;5.68;;
29202;SDS011;16245;51.170;4.884;2022-11-20T16:21:39;9.43;;;5.68;;
29202;SDS011;16245;51.170;4.884;2022-11-20T16:24:06;8.00;;;6.05;;
29202;SDS011;16245;51.170;4.884;2022-11-20T16:26:33;9.13;;;7.13;;
29202;SDS011;16245;51.170;4.884;2022-11-20T16:29:00;8.80;;;6.47;;
29202;SDS011;16245;51.170;4.884;2022-11-20T16:31:27;6.75;;;5.50;;